ADDS METAR Data INFO
IDs: Format: Raw Decoded Include TAF

Data at: 0945 UTC 20 Nov 2017

METAR for:KOSU (Columbus/Ohio State, OH, US)
Text:KOSU 200853Z AUTO 21006KT 10SM CLR M04/M05 A3014 RMK AO2 SLP215 T10391050 50003
Temperature: -3.9°C ( 25°F)
Dewpoint: -5.0°C ( 23°F) [RH = 92%]
Pressure (altimeter):30.14 inches Hg (1020.7 mb) [Sea level pressure: 1021.5 mb]
Winds:from the SSW (210 degrees) at 7 MPH (6 knots; 3.1 m/s)
Visibility:10 or more sm (16+ km)
Ceiling:at least 12,000 feet AGL
Clouds:sky clear below 12,000 feet AGL
QC Flag:automated observation with no human augmentation